Buffalo, NY

12:16 PM EDT on August 20, 2017 (GMT -0400)
Buffalo Niagara International | | Change Station

Elev 722 ft 42.94 °N, 78.73 °W | Updated 22 minutes ago

Mostly Cloudy
Mostly Cloudy
76 °F
Feels Like 76 °F
N
15
Wind Variable Wind from SW

Today
High -- | Low -- °F
--% Chance of Precip.
Yesterday
High -- | Low -- °F
Precip. -- in
Pressure 30.10 in
Visibility 10.0 miles
Clouds Few 1800 ft
Mostly Cloudy 3200 ft
Mostly Cloudy 6000 ft
Dew Point 67 °F
Humidity 74%
Rainfall 0.00 in
Snow Depth Not available.
6:26 AM 8:08 PM
Waning Crescent, 2% visible
METAR KBUF 201554Z 22013KT 10SM FEW018 BKN032 BKN060 24/19 A3011 RMK AO2 SLP192 T02440194
Pressure 30.10 in
Visibility 10.0 miles
Clouds Few 1800 ft
Mostly Cloudy 3200 ft
Mostly Cloudy 6000 ft
Dew Point 67 °F
Humidity 74%
Rainfall 0.00 in
Snow Depth Not available.
6:26 AM 8:08 PM
Waning Crescent, 2% visible
METAR KBUF 201554Z 22013KT 10SM FEW018 BKN032 BKN060 24/19 A3011 RMK AO2 SLP192 T02440194

Get Severe Weather Alerts

Thanks for signing up!

Be on the lookout for a verification email in your inbox.

You'll start receiving the daily forecast at 6 AM.

×

10-Day Weather Forecast

Almanac

Astronomy

Aug. 20, 2017 Rise Set
Actual Time
Civil Twilight
Nautical Twilight
Astronomical Twilight
Moon
Length of Visible Light
Length of Day
Tomorrow will be .
, % of the Moon is Illuminated

Today's Extremes

State Highs State Lows

Community

WunderPhotos

Category 6

Welcome to Category 6. This is the collective home for Weather Underground's featured writeups by Dr. Jeff Masters (right), Bob Henson (left), Chris Burt, and other regular contributors.

Nearby

Air Quality

  Air Quality AQ Index Pollutant
Not available.

Snow Depth

Station Depth Elevation

Earthquake Activity

City Distance Mag. Time & Date
Minimum magnitude displayed is 2.5.

Coastal Water Temperatures

Place Temperature

Stations

Nearby Weather Stations

Station Location Temp. Windchill Dew Point Humidity Wind Precip. Elev Updated Type
                   

Watches & Warnings

There are currently no watches in effect.